createdAt,value
2023-05-10T00:02:01.744Z,11.62
2023-05-10T00:04:32.265Z,11.61
2023-05-10T00:07:00.542Z,11.61
2023-05-10T00:09:28.814Z,11.61
2023-05-10T00:11:59.548Z,11.58
2023-05-10T00:14:27.674Z,11.57
2023-05-10T00:16:56.174Z,11.57
2023-05-10T00:21:19.582Z,11.51
2023-05-10T00:23:47.963Z,11.52
2023-05-10T00:26:17.577Z,11.44
2023-05-10T00:28:51.411Z,11.36
2023-05-10T00:31:20.051Z,11.47
2023-05-10T00:33:48.214Z,11.41
2023-05-10T00:36:16.602Z,11.40
2023-05-10T00:38:46.767Z,11.38
2023-05-10T00:41:14.988Z,11.30
2023-05-10T00:43:43.742Z,11.34
2023-05-10T00:46:16.397Z,11.36
2023-05-10T00:48:45.751Z,11.35
2023-05-10T00:51:16.360Z,11.35
2023-05-10T00:53:48.204Z,11.34
2023-05-10T00:56:17.178Z,11.33
2023-05-10T00:58:46.216Z,11.32
2023-05-10T01:01:15.575Z,11.31
2023-05-10T01:03:45.657Z,11.30
2023-05-10T01:06:17.385Z,11.30
2023-05-10T01:08:47.074Z,11.31
2023-05-10T01:11:16.221Z,11.26
2023-05-10T01:13:48.602Z,11.30
2023-05-10T01:16:16.880Z,11.27
2023-05-10T01:18:48.020Z,11.22
2023-05-10T01:21:23.662Z,11.26
2023-05-10T01:24:34.570Z,11.23
2023-05-10T01:27:27.369Z,11.24
2023-05-10T01:30:45.418Z,11.25
2023-05-10T01:33:20.635Z,11.24
2023-05-10T01:35:56.615Z,11.23
2023-05-10T01:38:32.410Z,11.19
2023-05-10T01:41:10.815Z,11.22
2023-05-10T01:43:46.308Z,11.18
2023-05-10T01:46:19.903Z,11.13
2023-05-10T01:48:52.064Z,11.18
2023-05-10T01:51:26.307Z,11.18
2023-05-10T01:54:02.610Z,11.15
2023-05-10T01:56:35.402Z,10.97
2023-05-10T01:59:10.999Z,11.08
2023-05-10T02:01:40.448Z,11.05
2023-05-10T02:04:11.731Z,11.06
2023-05-10T02:06:43.564Z,11.04
2023-05-10T02:09:16.447Z,11.09
2023-05-10T02:11:45.177Z,11.08
2023-05-10T02:14:16.373Z,11.10
2023-05-10T02:16:45.259Z,11.08
2023-05-10T02:19:16.267Z,11.08
2023-05-10T02:21:48.205Z,11.10
2023-05-10T02:24:18.050Z,11.11
2023-05-10T02:26:52.095Z,11.11
2023-05-10T02:29:21.465Z,11.09
2023-05-10T02:31:50.476Z,11.09
2023-05-10T02:34:21.851Z,11.12
2023-05-10T02:36:54.602Z,11.08
2023-05-10T02:39:29.353Z,11.05
2023-05-10T02:42:01.253Z,11.07
2023-05-10T02:44:32.284Z,11.03
2023-05-10T02:49:48.138Z,11.01
2023-05-10T02:52:21.588Z,11.00
2023-05-10T02:54:56.966Z,11.04
2023-05-10T02:57:35.740Z,11.02
2023-05-10T03:00:04.795Z,11.01
2023-05-10T03:02:33.556Z,11.05
2023-05-10T03:05:04.242Z,11.03
2023-05-10T03:07:32.468Z,11.06
2023-05-10T03:10:08.258Z,11.09
2023-05-10T03:12:55.131Z,11.08
2023-05-10T03:15:31.154Z,11.06
2023-05-10T03:18:05.782Z,11.04
2023-05-10T03:20:38.456Z,11.05
2023-05-10T03:23:13.480Z,11.11
2023-05-10T03:25:44.804Z,11.07
2023-05-10T03:28:14.417Z,11.07
2023-05-10T03:30:44.981Z,11.07
2023-05-10T03:33:15.181Z,10.82
2023-05-10T03:35:48.343Z,11.07
2023-05-10T03:38:17.687Z,11.10
2023-05-10T03:40:48.626Z,11.05
2023-05-10T03:43:16.851Z,10.99
2023-05-10T03:45:45.174Z,10.98
2023-05-10T03:48:14.694Z,10.97
2023-05-10T03:50:43.880Z,10.91
2023-05-10T03:53:13.428Z,10.89
2023-05-10T03:55:41.754Z,10.81
2023-05-10T03:58:13.082Z,10.74
2023-05-10T04:00:46.320Z,10.69
2023-05-10T04:03:16.417Z,10.66
2023-05-10T04:05:44.612Z,10.61
2023-05-10T04:08:15.899Z,10.60
2023-05-10T04:10:44.041Z,10.55
2023-05-10T04:13:14.624Z,10.53
2023-05-10T04:15:42.855Z,10.51
2023-05-10T04:18:11.209Z,10.47
2023-05-10T04:20:39.344Z,10.43
2023-05-10T04:23:07.651Z,10.43
2023-05-10T04:25:37.746Z,10.44
2023-05-10T04:28:06.165Z,10.37
2023-05-10T04:30:36.611Z,10.36
2023-05-10T04:33:05.198Z,10.34
2023-05-10T04:35:33.338Z,10.30
2023-05-10T04:38:01.644Z,10.31
2023-05-10T04:40:32.043Z,10.27
2023-05-10T04:43:03.663Z,10.31
2023-05-10T04:45:31.841Z,10.28
2023-05-10T04:48:00.251Z,10.27
2023-05-10T04:50:28.459Z,10.23
2023-05-10T04:52:56.743Z,10.29
2023-05-10T04:55:25.011Z,10.30
2023-05-10T04:57:53.639Z,10.30
2023-05-10T05:00:23.624Z,10.34
2023-05-10T05:02:52.842Z,10.38
2023-05-10T05:05:21.339Z,10.36
2023-05-10T05:07:49.578Z,10.44
2023-05-10T05:10:20.229Z,10.49
2023-05-10T05:12:48.745Z,10.58
2023-05-10T05:15:17.884Z,10.67
2023-05-10T05:17:47.486Z,10.71
2023-05-10T05:22:28.121Z,10.79
2023-05-10T05:24:56.426Z,10.88
2023-05-10T05:27:25.416Z,10.82
2023-05-10T05:29:55.063Z,10.89
2023-05-10T05:32:23.398Z,10.95
2023-05-10T05:34:52.001Z,10.97
2023-05-10T05:37:26.231Z,11.09
2023-05-10T05:39:55.497Z,11.14
2023-05-10T05:42:26.261Z,11.34
2023-05-10T05:44:54.542Z,11.44
2023-05-10T05:47:22.662Z,11.58
2023-05-10T05:49:51.143Z,11.68
2023-05-10T05:52:19.318Z,11.91
2023-05-10T05:54:48.910Z,12.02
2023-05-10T05:57:17.080Z,12.11
2023-05-10T05:59:45.512Z,12.20
2023-05-10T06:02:14.227Z,12.29
2023-05-10T06:04:44.686Z,12.43
2023-05-10T06:07:13.265Z,12.58
2023-05-10T06:09:44.024Z,12.65
2023-05-10T06:12:13.859Z,12.69
2023-05-10T06:14:44.745Z,12.84
2023-05-10T06:17:12.769Z,13.04
2023-05-10T06:19:40.849Z,13.16
2023-05-10T06:22:09.368Z,13.16
2023-05-10T06:24:37.449Z,13.14
2023-05-10T06:27:05.547Z,13.19
2023-05-10T06:29:35.531Z,13.21
2023-05-10T06:32:04.238Z,13.31
2023-05-10T06:34:32.586Z,13.26
2023-05-10T06:37:01.015Z,13.44
2023-05-10T06:39:29.787Z,13.34
2023-05-10T06:41:57.832Z,13.34
2023-05-10T06:44:31.600Z,13.37
2023-05-10T06:47:01.249Z,13.38
2023-05-10T06:49:31.876Z,13.36
2023-05-10T06:52:00.695Z,13.47
2023-05-10T06:54:28.973Z,13.41
2023-05-10T06:57:01.266Z,13.53
2023-05-10T06:59:31.065Z,13.72
2023-05-10T07:01:59.804Z,13.76
2023-05-10T07:04:29.402Z,14.11
2023-05-10T07:06:58.311Z,14.36
2023-05-10T07:09:29.180Z,14.68
2023-05-10T07:11:58.359Z,14.93
2023-05-10T07:14:26.526Z,14.87
2023-05-10T07:16:54.670Z,14.84
2023-05-10T07:19:22.945Z,14.93
2023-05-10T07:21:54.729Z,15.01
2023-05-10T07:24:23.621Z,15.01
2023-05-10T07:26:51.800Z,15.06
2023-05-10T07:29:20.405Z,15.06
2023-05-10T07:31:51.618Z,15.11
2023-05-10T07:34:19.906Z,14.95
2023-05-10T07:36:48.512Z,14.95
2023-05-10T07:39:26.665Z,14.95
2023-05-10T07:41:55.719Z,14.68
2023-05-10T07:44:23.879Z,14.58
2023-05-10T07:46:52.413Z,14.63
2023-05-10T07:49:21.049Z,14.51
2023-05-10T07:51:51.545Z,14.62
2023-05-10T07:54:21.756Z,14.68
2023-05-10T07:56:51.063Z,14.70
2023-05-10T07:59:19.820Z,14.78
2023-05-10T08:01:48.095Z,14.87
2023-05-10T08:04:16.417Z,15.13
2023-05-10T08:06:47.836Z,15.55
2023-05-10T08:09:18.874Z,15.80
2023-05-10T08:11:48.788Z,15.97
2023-05-10T08:14:16.863Z,16.24
2023-05-10T08:16:45.054Z,16.30
2023-05-10T08:19:13.169Z,16.63
2023-05-10T08:21:43.522Z,16.84
2023-05-10T08:24:11.817Z,17.15
2023-05-10T08:26:42.421Z,17.34
2023-05-10T08:29:12.024Z,17.63
2023-05-10T08:31:40.189Z,17.91
2023-05-10T08:34:08.463Z,17.77
2023-05-10T08:36:39.492Z,17.38
2023-05-10T08:39:19.512Z,17.41
2023-05-10T08:42:00.249Z,17.43
2023-05-10T08:44:31.365Z,18.10
2023-05-10T08:47:01.744Z,17.81
2023-05-10T08:49:33.681Z,18.48
2023-05-10T08:52:05.095Z,19.24
2023-05-10T08:54:36.646Z,19.42
2023-05-10T08:57:05.645Z,19.05
2023-05-10T08:59:35.174Z,19.58
2023-05-10T09:02:04.826Z,19.56
2023-05-10T09:04:33.395Z,19.29
2023-05-10T09:07:02.218Z,18.86
2023-05-10T09:09:31.046Z,18.43
2023-05-10T09:11:59.356Z,17.73
2023-05-10T09:14:28.037Z,17.23
2023-05-10T09:16:58.380Z,17.28
2023-05-10T09:19:26.617Z,17.03
2023-05-10T09:21:55.103Z,17.96
2023-05-10T09:24:27.836Z,18.70
2023-05-10T09:26:56.036Z,18.75
2023-05-10T09:29:26.488Z,19.80
2023-05-10T09:31:56.388Z,19.95
2023-05-10T09:34:33.458Z,20.27
2023-05-10T09:37:05.617Z,20.67
2023-05-10T09:39:34.713Z,20.58
2023-05-10T09:42:05.979Z,20.83
2023-05-10T09:44:34.652Z,20.06
2023-05-10T09:47:03.133Z,19.96
2023-05-10T09:49:34.375Z,19.10
2023-05-10T09:52:06.260Z,18.62
2023-05-10T09:54:36.012Z,19.39
2023-05-10T09:57:06.377Z,19.09
2023-05-10T09:59:36.406Z,18.86
2023-05-10T10:02:07.227Z,18.76
2023-05-10T10:04:43.239Z,19.10
2023-05-10T10:07:11.611Z,19.26
2023-05-10T10:09:41.022Z,19.29
2023-05-10T10:12:11.513Z,19.78
2023-05-10T10:14:39.812Z,20.47
2023-05-10T10:17:09.152Z,20.87
2023-05-10T10:19:38.409Z,21.73
2023-05-10T10:23:26.312Z,20.90
2023-05-10T10:25:56.456Z,20.94
2023-05-10T10:28:34.493Z,21.32
2023-05-10T10:31:18.722Z,21.80
2023-05-10T10:34:01.549Z,22.19
2023-05-10T10:36:29.929Z,22.87
2023-05-10T10:39:05.080Z,23.30
2023-05-10T10:41:35.630Z,22.35
2023-05-10T10:44:37.699Z,21.82
2023-05-10T10:47:25.783Z,22.40
2023-05-10T10:50:04.458Z,22.54
2023-05-10T10:52:34.966Z,22.67
2023-05-10T10:55:07.579Z,22.62
2023-05-10T10:57:45.456Z,22.48
2023-05-10T11:00:31.771Z,23.25
2023-05-10T11:03:01.870Z,22.65
2023-05-10T11:05:39.130Z,23.52
2023-05-10T11:08:22.959Z,24.31
2023-05-10T11:10:55.157Z,23.14
2023-05-10T11:13:31.514Z,25.12
2023-05-10T11:16:01.078Z,24.53
2023-05-10T11:18:30.746Z,24.61
2023-05-10T11:21:01.299Z,24.20
2023-05-10T11:23:33.636Z,23.08
2023-05-10T11:26:03.413Z,23.51
2023-05-10T11:28:31.549Z,23.46
2023-05-10T11:31:00.018Z,23.05
2023-05-10T11:33:28.295Z,23.45
2023-05-10T11:35:56.490Z,23.96
2023-05-10T11:38:24.660Z,24.34
2023-05-10T11:40:55.494Z,25.41
2023-05-10T11:43:31.642Z,26.12
2023-05-10T11:46:00.015Z,25.12
2023-05-10T11:48:28.872Z,24.17
2023-05-10T11:50:58.119Z,24.07
2023-05-10T11:53:28.355Z,24.93
2023-05-10T11:55:56.717Z,24.11
2023-05-10T11:58:25.083Z,23.65
2023-05-10T12:00:54.772Z,23.51
2023-05-10T12:03:23.223Z,23.03
2023-05-10T12:05:53.987Z,23.12
2023-05-10T12:08:24.201Z,23.58
2023-05-10T12:10:52.786Z,22.26
2023-05-10T12:13:22.057Z,21.50
2023-05-10T12:15:50.579Z,21.39
2023-05-10T12:18:26.580Z,21.61
2023-05-10T12:21:05.823Z,20.91
2023-05-10T12:23:34.031Z,20.77
2023-05-10T12:26:05.365Z,19.69
2023-05-10T12:28:34.767Z,19.61
2023-05-10T12:31:03.715Z,19.45
2023-05-10T12:33:42.718Z,19.37
2023-05-10T12:36:11.981Z,19.74
2023-05-10T12:38:44.272Z,19.85
2023-05-10T12:41:14.123Z,20.05
2023-05-10T12:43:42.788Z,19.99
2023-05-10T12:46:12.434Z,20.75
2023-05-10T12:48:43.766Z,20.52
2023-05-10T12:51:14.121Z,20.31
2023-05-10T12:53:45.088Z,19.99
2023-05-10T12:56:14.644Z,19.81
2023-05-10T12:58:43.038Z,20.01
2023-05-10T13:01:11.133Z,20.26
2023-05-10T13:03:39.586Z,19.96
2023-05-10T13:06:09.441Z,20.05
2023-05-10T13:08:37.671Z,19.95
2023-05-10T13:11:06.597Z,19.97
2023-05-10T13:13:35.424Z,20.00
2023-05-10T13:16:03.520Z,20.33
2023-05-10T13:18:31.945Z,21.00
2023-05-10T13:21:00.322Z,21.58
2023-05-10T13:23:29.983Z,21.51
2023-05-10T13:25:58.245Z,21.42
2023-05-10T13:28:27.617Z,21.43
2023-05-10T13:30:55.921Z,20.78
2023-05-10T13:33:26.191Z,20.23
2023-05-10T13:35:55.780Z,20.84
2023-05-10T13:38:24.128Z,20.39
2023-05-10T13:40:54.064Z,20.37
2023-05-10T13:43:22.450Z,20.14
2023-05-10T13:45:50.552Z,19.75
2023-05-10T13:48:21.245Z,19.47
2023-05-10T13:50:49.591Z,19.82
2023-05-10T13:53:17.919Z,19.68
2023-05-10T13:55:46.711Z,19.84
2023-05-10T13:58:16.526Z,19.39
2023-05-10T14:00:45.010Z,19.48
2023-05-10T14:03:13.331Z,19.36
2023-05-10T14:05:46.023Z,19.60
2023-05-10T14:08:15.684Z,19.57
2023-05-10T14:10:44.134Z,19.35
2023-05-10T14:13:12.287Z,19.62
2023-05-10T14:15:42.092Z,19.74
2023-05-10T14:18:10.575Z,19.62
2023-05-10T14:20:38.838Z,19.95
2023-05-10T14:23:07.014Z,19.65
2023-05-10T14:25:36.062Z,20.28
2023-05-10T14:28:07.163Z,20.50
2023-05-10T14:30:36.275Z,20.09
2023-05-10T14:33:05.984Z,19.75
2023-05-10T14:35:36.950Z,19.71
2023-05-10T14:38:05.430Z,19.82
2023-05-10T14:40:35.927Z,20.00
2023-05-10T14:43:04.241Z,20.01
2023-05-10T14:45:32.654Z,19.88
2023-05-10T14:48:01.021Z,19.52
2023-05-10T14:53:04.199Z,19.27
2023-05-10T14:55:33.803Z,19.35
2023-05-10T14:58:01.968Z,19.70
2023-05-10T15:00:33.741Z,19.48
2023-05-10T15:03:02.456Z,19.93
2023-05-10T15:05:32.487Z,20.06
2023-05-10T15:08:01.179Z,19.84
2023-05-10T15:10:29.358Z,19.81
2023-05-10T15:13:01.430Z,19.42
2023-05-10T15:15:29.698Z,19.62
2023-05-10T15:17:57.860Z,19.88
2023-05-10T15:20:26.272Z,19.71
2023-05-10T15:24:28.490Z,20.08
2023-05-10T15:26:56.776Z,20.02
2023-05-10T15:29:27.602Z,20.05
2023-05-10T15:31:55.731Z,20.16
2023-05-10T15:34:23.994Z,20.20
2023-05-10T15:36:56.780Z,19.99
2023-05-10T15:39:25.065Z,19.74
2023-05-10T15:41:54.643Z,19.85
2023-05-10T15:44:22.979Z,19.76
2023-05-10T15:46:52.350Z,19.75
2023-05-10T15:49:20.592Z,19.90
2023-05-10T15:51:50.078Z,20.06
2023-05-10T15:54:18.386Z,19.62
2023-05-10T15:56:46.644Z,19.40
2023-05-10T15:59:16.148Z,19.36
2023-05-10T16:01:44.710Z,19.27
2023-05-10T16:04:15.154Z,19.19
2023-05-10T16:06:43.338Z,19.14
2023-05-10T16:09:14.050Z,18.75
2023-05-10T16:11:44.704Z,18.67
2023-05-10T16:14:13.036Z,18.48
2023-05-10T16:16:43.386Z,18.43
2023-05-10T16:19:11.632Z,18.50
2023-05-10T16:21:39.843Z,18.32
2023-05-10T16:24:08.410Z,18.43
2023-05-10T16:26:40.747Z,18.41
2023-05-10T16:29:09.234Z,18.28
2023-05-10T16:31:37.460Z,18.34
2023-05-10T16:34:14.630Z,18.14
2023-05-10T16:36:43.689Z,18.32
2023-05-10T16:39:11.830Z,18.30
2023-05-10T16:41:40.749Z,18.23
2023-05-10T16:44:11.152Z,18.25
2023-05-10T16:46:39.413Z,18.13
2023-05-10T16:49:09.439Z,18.14
2023-05-10T16:51:38.060Z,18.09
2023-05-10T16:54:06.378Z,18.01
2023-05-10T16:56:34.976Z,17.94
2023-05-10T16:59:03.724Z,17.98
2023-05-10T17:01:31.827Z,17.88
2023-05-10T17:04:00.633Z,17.74
2023-05-10T17:06:30.175Z,17.60
2023-05-10T17:08:58.367Z,17.53
2023-05-10T17:11:29.978Z,17.52
2023-05-10T17:13:58.117Z,17.48
2023-05-10T17:16:26.974Z,17.52
2023-05-10T17:18:57.990Z,17.36
2023-05-10T17:21:26.546Z,17.36
2023-05-10T17:23:55.952Z,17.33
2023-05-10T17:26:27.712Z,17.21
2023-05-10T17:28:56.125Z,17.19
2023-05-10T17:31:27.082Z,17.15
2023-05-10T17:33:55.925Z,17.14
2023-05-10T17:36:24.523Z,17.04
2023-05-10T17:38:52.677Z,17.05
2023-05-10T17:41:23.445Z,17.04
2023-05-10T17:43:51.935Z,17.06
2023-05-10T17:46:23.810Z,16.98
2023-05-10T17:48:52.240Z,16.95
2023-05-10T17:51:20.814Z,16.93
2023-05-10T17:53:48.966Z,16.90
2023-05-10T17:56:17.345Z,16.81
2023-05-10T17:58:47.798Z,16.79
2023-05-10T18:01:17.490Z,16.77
2023-05-10T18:03:46.431Z,16.71
2023-05-10T18:06:15.038Z,16.65
2023-05-10T18:08:43.166Z,16.63
2023-05-10T18:11:14.218Z,16.57
2023-05-10T18:13:42.448Z,16.52
2023-05-10T18:16:13.559Z,16.48
2023-05-10T18:18:42.359Z,16.45
2023-05-10T18:21:13.494Z,16.43
2023-05-10T18:23:41.787Z,16.40
2023-05-10T18:26:13.117Z,16.39
2023-05-10T18:28:43.975Z,16.40
2023-05-10T18:31:13.845Z,16.37
2023-05-10T18:33:42.043Z,16.33
2023-05-10T18:36:12.756Z,16.29
2023-05-10T18:38:41.418Z,16.19
2023-05-10T18:41:12.362Z,16.10
2023-05-10T18:43:42.513Z,15.98
2023-05-10T18:46:10.876Z,15.83
2023-05-10T18:48:40.793Z,15.79
2023-05-10T18:51:09.088Z,15.56
2023-05-10T18:53:38.676Z,15.29
2023-05-10T18:56:07.140Z,15.07
2023-05-10T18:58:35.886Z,14.92
2023-05-10T19:01:04.061Z,14.66
2023-05-10T19:03:32.273Z,14.53
2023-05-10T19:06:01.904Z,14.37
2023-05-10T19:08:32.442Z,14.22
2023-05-10T19:11:02.913Z,14.07
2023-05-10T19:13:31.160Z,13.92
2023-05-10T19:16:06.178Z,13.77
2023-05-10T19:18:34.675Z,13.77
2023-05-10T19:21:08.464Z,13.65
2023-05-10T19:23:39.331Z,13.50
2023-05-10T19:26:09.336Z,13.39
2023-05-10T19:28:59.335Z,13.30
2023-05-10T19:31:43.313Z,13.21
2023-05-10T19:34:29.120Z,13.11
2023-05-10T19:37:07.995Z,12.96
2023-05-10T19:39:38.812Z,13.01
2023-05-10T19:42:07.145Z,13.01
2023-05-10T19:45:27.113Z,12.99
2023-05-10T19:48:07.726Z,12.95
2023-05-10T19:50:45.005Z,12.89
2023-05-10T19:53:16.554Z,12.87
2023-05-10T19:55:47.707Z,12.82
2023-05-10T19:58:15.843Z,12.79
2023-05-10T20:00:43.982Z,12.79
2023-05-10T20:03:12.215Z,12.76
2023-05-10T20:05:40.424Z,12.75
2023-05-10T20:08:10.891Z,12.69
2023-05-10T20:10:40.781Z,12.64
2023-05-10T20:13:11.435Z,12.60
2023-05-10T20:15:39.802Z,12.61
2023-05-10T20:18:10.160Z,12.58
2023-05-10T20:20:38.381Z,12.55
2023-05-10T20:25:28.813Z,12.44
2023-05-10T20:28:06.907Z,12.43
2023-05-10T20:30:36.475Z,12.37
2023-05-10T20:33:04.750Z,12.33
2023-05-10T20:35:34.220Z,12.24
2023-05-10T20:38:02.628Z,12.21
2023-05-10T20:40:33.056Z,12.11
2023-05-10T20:43:01.728Z,12.02
2023-05-10T20:45:30.168Z,11.97
2023-05-10T20:47:58.629Z,11.93
2023-05-10T20:50:27.692Z,11.86
2023-05-10T20:52:55.851Z,11.76
2023-05-10T20:55:24.593Z,11.70
2023-05-10T20:57:54.024Z,11.63
2023-05-10T21:00:22.705Z,11.60
2023-05-10T21:02:53.259Z,11.51
2023-05-10T21:05:21.397Z,11.48
2023-05-10T21:07:50.025Z,11.45
2023-05-10T21:10:18.412Z,11.39
2023-05-10T21:12:46.774Z,11.35
2023-05-10T21:15:17.623Z,11.25
2023-05-10T21:17:46.302Z,11.17
2023-05-10T21:20:15.223Z,11.09
2023-05-10T21:22:45.817Z,10.93
2023-05-10T21:25:14.185Z,10.83
2023-05-10T21:27:42.320Z,10.82
2023-05-10T21:30:11.246Z,10.79
2023-05-10T21:32:40.928Z,10.72
2023-05-10T21:35:10.109Z,10.80
2023-05-10T21:37:40.725Z,10.70
2023-05-10T21:40:09.745Z,10.61
2023-05-10T21:42:37.783Z,10.58
2023-05-10T21:45:07.318Z,10.47
2023-05-10T21:47:37.874Z,10.44
2023-05-10T21:50:10.163Z,10.41
2023-05-10T21:52:38.856Z,10.31
2023-05-10T21:55:10.593Z,10.22
2023-05-10T21:57:38.742Z,10.18
2023-05-10T22:00:08.700Z,10.10
2023-05-10T22:02:36.925Z,10.19
2023-05-10T22:05:07.393Z,10.15
2023-05-10T22:07:38.648Z,10.03
2023-05-10T22:10:08.007Z,9.99
2023-05-10T22:12:36.188Z,9.93
2023-05-10T22:17:36.054Z,9.84
2023-05-10T22:20:04.349Z,9.74
2023-05-10T22:22:33.948Z,9.70
2023-05-10T22:25:02.357Z,9.72
2023-05-10T22:27:30.614Z,9.67
2023-05-10T22:29:58.794Z,9.75
2023-05-10T22:32:27.188Z,9.78
2023-05-10T22:34:55.849Z,9.77
2023-05-10T22:37:24.163Z,9.81
2023-05-10T22:39:53.762Z,9.77
2023-05-10T22:42:22.140Z,9.82
2023-05-10T22:44:50.294Z,9.80
2023-05-10T22:47:21.404Z,9.73
2023-05-10T22:49:52.264Z,9.71
2023-05-10T22:52:24.239Z,9.72
2023-05-10T22:54:53.745Z,9.71
2023-05-10T22:57:22.062Z,9.64
2023-05-10T22:59:50.509Z,9.65
2023-05-10T23:02:18.882Z,9.59
2023-05-10T23:04:48.388Z,9.59
2023-05-10T23:07:16.769Z,9.55
2023-05-10T23:09:47.652Z,9.51
2023-05-10T23:12:19.598Z,9.50
2023-05-10T23:14:47.756Z,9.49
2023-05-10T23:17:15.925Z,9.49
2023-05-10T23:19:46.651Z,9.52
2023-05-10T23:22:15.067Z,9.55
2023-05-10T23:24:43.183Z,9.51
2023-05-10T23:27:14.721Z,9.47
2023-05-10T23:29:44.231Z,9.41
2023-05-10T23:32:12.530Z,9.36
2023-05-10T23:34:40.749Z,9.32
2023-05-10T23:37:08.926Z,9.30
2023-05-10T23:39:37.163Z,9.31
2023-05-10T23:42:05.354Z,9.29
2023-05-10T23:44:33.701Z,9.28
2023-05-10T23:47:03.303Z,9.27
2023-05-10T23:49:33.921Z,9.26
2023-05-10T23:52:02.100Z,9.21
2023-05-10T23:54:30.330Z,9.19
2023-05-10T23:56:58.420Z,9.17
2023-05-10T23:59:26.740Z,9.17
